Time;durP1;ratioP1;P1;durP2;ratioP2;P2;SDS_P1;SDS_P2;PMS_P1;PMS_P2;Temp;Humidity;BMP_temperature;BMP_pressure;BME280_temperature;BME280_humidity;BME280_pressure;Samples;Min_cycle;Max_cycle;Signal;HPM_P1;HPM_P2
2022/02/27 00:00:40;;;;;;;13.30;7.40;;;0.60;83.40;;;;;;6312967;22;20166;-91
2022/02/27 00:03:05;;;;;;;18.77;7.37;;;0.50;83.10;;;;;;6312422;22;20158;-91
2022/02/27 00:05:31;;;;;;;15.33;7.20;;;0.50;83.10;;;;;;6312301;22;20202;-91
2022/02/27 00:07:57;;;;;;;11.57;6.97;;;0.50;83.30;;;;;;6312367;22;20180;-92
2022/02/27 00:10:22;;;;;;;13.83;7.00;;;0.40;83.40;;;;;;6312671;22;20539;-91
2022/02/27 00:12:49;;;;;;;11.43;6.70;;;0.50;83.50;;;;;;6312529;22;20200;-91
2022/02/27 00:15:15;;;;;;;12.10;6.83;;;0.40;83.50;;;;;;6312496;22;20153;-91
2022/02/27 00:17:40;;;;;;;10.20;6.77;;;0.40;83.60;;;;;;6312850;22;20180;-90
2022/02/27 00:20:08;;;;;;;14.10;7.40;;;0.30;83.60;;;;;;6312552;22;20592;-90
2022/02/27 00:22:34;;;;;;;11.27;7.20;;;0.30;84.00;;;;;;6312077;22;20166;-90
2022/02/27 00:25:00;;;;;;;11.63;7.27;;;0.20;84.30;;;;;;6312014;22;20196;-90
2022/02/27 00:27:26;;;;;;;12.00;7.20;;;0.30;84.80;;;;;;6312139;22;20177;-90
2022/02/27 00:29:51;;;;;;;13.97;7.37;;;0.30;84.80;;;;;;6312177;22;20182;-91
2022/02/27 00:32:17;;;;;;;14.73;7.37;;;0.30;84.90;;;;;;6312697;22;20147;-90
2022/02/27 00:34:42;;;;;;;10.90;6.80;;;0.30;85.10;;;;;;6313533;22;20148;-91
2022/02/27 00:37:08;;;;;;;7.63;6.33;;;0.30;85.20;;;;;;6313293;22;20681;-90
2022/02/27 00:39:34;;;;;;;14.27;7.60;;;0.20;85.30;;;;;;6312268;22;20187;-90
2022/02/27 00:42:00;;;;;;;14.47;6.20;;;0.20;85.40;;;;;;6311978;22;20180;-90
2022/02/27 00:44:25;;;;;;;12.80;7.30;;;0.20;85.60;;;;;;6312047;22;20151;-90
2022/02/27 00:46:51;;;;;;;10.33;7.50;;;0.20;85.70;;;;;;6311979;22;20183;-90
2022/02/27 00:49:17;;;;;;;15.33;7.60;;;0.20;85.70;;;;;;6312249;22;20515;-90
2022/02/27 00:51:43;;;;;;;13.07;7.80;;;0.30;85.80;;;;;;6311814;22;20150;-91
2022/02/27 00:54:09;;;;;;;14.33;7.23;;;0.20;85.80;;;;;;6311879;22;20154;-90
2022/02/27 00:56:35;;;;;;;14.47;7.50;;;0.30;85.80;;;;;;6311313;22;20510;-90
2022/02/27 00:59:01;;;;;;;13.37;6.97;;;0.30;85.80;;;;;;6312056;22;20193;-90
2022/02/27 01:01:26;;;;;;;13.20;7.07;;;0.30;85.90;;;;;;6311813;22;20153;-90
2022/02/27 01:03:52;;;;;;;11.20;6.70;;;0.30;85.80;;;;;;6311802;22;20495;-90
2022/02/27 01:06:17;;;;;;;11.30;7.30;;;0.20;85.80;;;;;;6311634;22;20621;-90
2022/02/27 01:08:44;;;;;;;8.87;6.63;;;0.10;85.80;;;;;;6311831;22;20178;-90
2022/02/27 01:11:10;;;;;;;11.80;7.10;;;0.10;85.70;;;;;;6313155;22;20160;-90
2022/02/27 01:13:37;;;;;;;12.27;7.10;;;0.20;85.80;;;;;;6311612;22;20254;-90
2022/02/27 01:16:04;;;;;;;13.23;6.83;;;0.10;85.70;;;;;;6311576;22;20154;-90
2022/02/27 01:18:30;;;;;;;9.73;6.90;;;0.10;85.90;;;;;;6311453;22;20186;-90
2022/02/27 01:20:56;;;;;;;9.83;6.80;;;0.10;86.00;;;;;;6311409;22;20504;-91
2022/02/27 01:23:21;;;;;;;15.77;6.17;;;0.10;86.00;;;;;;6312115;22;20167;-90
2022/02/27 01:25:47;;;;;;;10.53;6.57;;;0.00;85.90;;;;;;6311609;22;20185;-91
2022/02/27 01:28:13;;;;;;;15.23;6.10;;;0.00;85.90;;;;;;6311825;22;20173;-90
2022/02/27 01:30:39;;;;;;;9.77;7.23;;;0.00;86.00;;;;;;6311578;22;20159;-90
2022/02/27 01:33:04;;;;;;;9.67;6.63;;;-0.10;86.20;;;;;;6311564;22;20174;-90
2022/02/27 01:35:30;;;;;;;10.87;6.60;;;-0.20;86.30;;;;;;6311610;22;20160;-90
2022/02/27 01:37:56;;;;;;;10.20;6.63;;;-0.20;86.50;;;;;;6311464;22;20176;-90
2022/02/27 01:40:21;;;;;;;12.70;5.70;;;-0.20;86.70;;;;;;6312606;22;20158;-90
2022/02/27 01:42:47;;;;;;;11.27;6.37;;;-0.10;86.80;;;;;;6311659;22;20153;-90
2022/02/27 01:45:12;;;;;;;11.13;5.90;;;-0.10;86.90;;;;;;6311358;22;20647;-90
2022/02/27 01:47:38;;;;;;;11.37;5.90;;;-0.10;87.00;;;;;;6311197;22;20151;-90
2022/02/27 01:50:05;;;;;;;7.13;5.33;;;-0.10;86.90;;;;;;6311599;22;20191;-90
2022/02/27 01:52:31;;;;;;;9.23;5.60;;;-0.10;87.00;;;;;;6311277;22;20145;-90
2022/02/27 01:54:58;;;;;;;8.93;5.67;;;-0.20;87.10;;;;;;6311306;22;20158;-90
2022/02/27 01:57:24;;;;;;;10.17;6.27;;;-0.10;87.30;;;;;;6311111;22;20532;-90
2022/02/27 01:59:50;;;;;;;11.60;5.37;;;-0.10;87.30;;;;;;6311205;22;20160;-90
2022/02/27 02:02:16;;;;;;;13.57;6.40;;;-0.10;87.40;;;;;;6311313;22;20162;-90
2022/02/27 02:04:42;;;;;;;8.00;5.63;;;-0.10;87.40;;;;;;6311140;22;20153;-90
2022/02/27 02:07:08;;;;;;;9.50;5.70;;;-0.10;87.50;;;;;;6311179;22;20204;-90
2022/02/27 02:09:34;;;;;;;12.30;6.10;;;-0.20;87.50;;;;;;6311057;22;20246;-90
2022/02/27 02:12:00;;;;;;;10.10;5.53;;;-0.20;87.50;;;;;;6311239;22;20157;-90
2022/02/27 02:14:26;;;;;;;9.27;6.07;;;-0.20;87.60;;;;;;6311105;22;20177;-90
2022/02/27 02:16:53;;;;;;;12.20;6.13;;;-0.20;87.80;;;;;;6311343;22;20556;-90
2022/02/27 02:19:21;;;;;;;9.07;5.83;;;-0.20;87.80;;;;;;6311077;22;20166;-90
2022/02/27 02:21:49;;;;;;;12.17;5.70;;;-0.30;87.90;;;;;;6311144;22;20220;-90
2022/02/27 02:24:16;;;;;;;12.00;5.93;;;-0.20;88.00;;;;;;6311045;22;20153;-90
2022/02/27 02:26:43;;;;;;;10.67;5.73;;;-0.20;88.00;;;;;;6311086;22;20659;-90
2022/02/27 02:29:10;;;;;;;10.00;6.00;;;-0.20;88.00;;;;;;6311642;22;20549;-90
2022/02/27 02:31:38;;;;;;;8.53;5.43;;;-0.20;88.10;;;;;;6312172;22;20157;-90
2022/02/27 02:34:11;;;;;;;13.10;6.07;;;-0.10;88.10;;;;;;6311144;22;20239;-90
2022/02/27 02:36:38;;;;;;;8.50;5.43;;;-0.10;88.10;;;;;;6311208;22;20151;-90
2022/02/27 02:39:05;;;;;;;13.63;6.10;;;-0.20;88.00;;;;;;6310927;22;20650;-90
2022/02/27 02:41:31;;;;;;;9.80;5.60;;;-0.20;88.00;;;;;;6311077;22;20150;-90
2022/02/27 02:43:57;;;;;;;7.80;5.37;;;-0.20;88.00;;;;;;6311060;22;20172;-90
2022/02/27 02:46:23;;;;;;;11.93;6.10;;;-0.30;88.00;;;;;;6311314;22;20252;-90
2022/02/27 02:48:49;;;;;;;15.77;6.33;;;-0.30;88.20;;;;;;6311091;22;20549;-90
2022/02/27 02:51:14;;;;;;;9.17;5.40;;;-0.30;88.20;;;;;;6311052;22;20189;-91
2022/02/27 02:53:40;;;;;;;11.97;5.87;;;-0.30;88.20;;;;;;6310923;22;20595;-91
2022/02/27 02:56:07;;;;;;;13.87;5.93;;;-0.40;88.20;;;;;;6311021;22;20162;-90
2022/02/27 02:58:34;;;;;;;9.93;6.03;;;-0.40;88.30;;;;;;6311807;22;20191;-90
2022/02/27 03:00:59;;;;;;;13.30;6.20;;;-0.40;88.30;;;;;;6311032;22;20149;-90
2022/02/27 03:03:25;;;;;;;12.37;5.93;;;-0.40;88.30;;;;;;6311012;22;20164;-90
2022/02/27 03:05:51;;;;;;;6.83;5.33;;;-0.50;88.20;;;;;;6310880;22;20202;-90
2022/02/27 03:08:16;;;;;;;6.23;5.50;;;-0.50;88.40;;;;;;6311169;22;20576;-90
2022/02/27 03:10:42;;;;;;;15.27;6.33;;;-0.40;88.50;;;;;;6310947;22;20195;-90
2022/02/27 03:13:07;;;;;;;8.00;6.17;;;-0.40;88.50;;;;;;6310876;22;20238;-90
2022/02/27 03:15:33;;;;;;;8.27;6.37;;;-0.40;88.60;;;;;;6313217;22;20206;-90
2022/02/27 03:17:59;;;;;;;12.53;6.43;;;-0.40;88.70;;;;;;6310959;22;20183;-90
2022/02/27 03:20:24;;;;;;;11.03;5.93;;;-0.40;88.60;;;;;;6312310;22;20161;-90
2022/02/27 03:22:50;;;;;;;11.60;5.47;;;-0.40;88.70;;;;;;6325462;22;20197;-90
2022/02/27 03:25:15;;;;;;;9.53;5.20;;;-0.40;88.80;;;;;;6313640;22;20180;-90
2022/02/27 03:27:41;;;;;;;12.03;5.97;;;-0.40;88.80;;;;;;6312539;22;20637;-90
2022/02/27 03:30:07;;;;;;;9.03;5.67;;;-0.40;88.80;;;;;;6312676;22;20216;-90
2022/02/27 03:32:32;;;;;;;17.87;6.37;;;-0.40;88.90;;;;;;6312565;22;20149;-90
2022/02/27 03:34:58;;;;;;;10.10;5.80;;;-0.40;88.90;;;;;;6313356;22;20164;-91
2022/02/27 03:37:24;;;;;;;7.47;5.40;;;-0.40;88.90;;;;;;6312524;22;20212;-89
2022/02/27 03:39:49;;;;;;;9.27;6.03;;;-0.40;88.90;;;;;;6312649;22;20517;-90
2022/02/27 03:42:15;;;;;;;10.50;5.80;;;-0.40;89.00;;;;;;6312452;22;20157;-90
2022/02/27 03:44:40;;;;;;;7.73;5.30;;;-0.40;89.00;;;;;;6312412;22;20160;-90
2022/02/27 03:47:06;;;;;;;10.80;5.37;;;-0.30;89.10;;;;;;6312404;22;20179;-90
2022/02/27 03:49:32;;;;;;;7.27;5.70;;;-0.30;89.10;;;;;;6313041;22;20170;-90
2022/02/27 03:51:57;;;;;;;7.83;5.70;;;-0.30;89.10;;;;;;6312230;22;20158;-90
2022/02/27 03:54:23;;;;;;;7.13;5.03;;;-0.20;89.20;;;;;;6312426;22;20152;-90
2022/02/27 03:56:49;;;;;;;14.90;6.20;;;-0.20;89.20;;;;;;6312225;22;20161;-90
2022/02/27 03:59:15;;;;;;;9.40;5.73;;;-0.20;89.10;;;;;;6312329;22;20173;-90
2022/02/27 04:01:40;;;;;;;8.13;5.80;;;-0.30;89.00;;;;;;6312370;22;20601;-90
2022/02/27 04:04:06;;;;;;;8.93;5.70;;;-0.30;89.10;;;;;;6312198;22;20168;-90
2022/02/27 04:06:32;;;;;;;9.27;5.87;;;-0.30;89.00;;;;;;6312524;22;20177;-90
2022/02/27 04:08:57;;;;;;;8.97;5.33;;;-0.30;89.00;;;;;;6312201;22;20267;-90
2022/02/27 04:11:23;;;;;;;7.10;5.37;;;-0.40;89.00;;;;;;6312205;22;20236;-90
2022/02/27 04:13:49;;;;;;;8.83;6.10;;;-0.40;89.00;;;;;;6312332;22;20149;-90
2022/02/27 04:16:14;;;;;;;9.03;5.60;;;-0.40;89.10;;;;;;6312237;22;20172;-90
2022/02/27 04:18:40;;;;;;;10.30;5.67;;;-0.50;89.10;;;;;;6312057;22;20173;-90
2022/02/27 04:21:06;;;;;;;7.20;5.63;;;-0.50;89.10;;;;;;6312112;22;20614;-90
2022/02/27 04:23:32;;;;;;;9.43;5.87;;;-0.50;89.10;;;;;;6312117;22;20612;-90
2022/02/27 04:25:57;;;;;;;9.33;6.40;;;-0.50;89.20;;;;;;6311882;22;20180;-90
2022/02/27 04:28:23;;;;;;;6.30;5.50;;;-0.60;89.20;;;;;;6311991;22;20288;-90
2022/02/27 04:30:49;;;;;;;11.43;6.30;;;-0.60;89.20;;;;;;6312022;22;20154;-90
2022/02/27 04:33:14;;;;;;;12.33;5.63;;;-0.60;89.20;;;;;;6311958;22;20145;-90
2022/02/27 04:35:40;;;;;;;9.07;5.90;;;-0.60;89.20;;;;;;6312182;22;20154;-90
2022/02/27 04:38:06;;;;;;;5.30;4.80;;;-0.70;89.30;;;;;;6311820;22;20234;-90
2022/02/27 04:40:34;;;;;;;9.27;5.90;;;-0.70;89.30;;;;;;6312152;22;20228;-90
2022/02/27 04:43:01;;;;;;;8.70;5.40;;;-0.70;89.40;;;;;;6312181;22;20237;-90
2022/02/27 04:45:28;;;;;;;12.30;6.10;;;-0.80;89.50;;;;;;6311779;22;20647;-90
2022/02/27 04:47:53;;;;;;;11.57;5.23;;;-0.70;89.60;;;;;;6311742;22;20625;-90
2022/02/27 04:50:19;;;;;;;12.20;6.10;;;-0.60;89.80;;;;;;6312012;22;20158;-90
2022/02/27 04:52:44;;;;;;;11.50;5.70;;;-0.60;89.80;;;;;;6311909;22;20679;-90
2022/02/27 04:55:10;;;;;;;13.57;5.93;;;-0.60;89.90;;;;;;6311855;22;20180;-90
2022/02/27 04:57:36;;;;;;;7.87;6.10;;;-0.60;89.80;;;;;;6311558;22;20254;-90
2022/02/27 05:00:06;;;;;;;10.63;6.13;;;-0.60;89.90;;;;;;6312922;22;20153;-90
2022/02/27 05:02:32;;;;;;;12.27;6.47;;;-0.60;89.90;;;;;;6311807;22;20142;-90
2022/02/27 05:04:58;;;;;;;8.33;5.63;;;-0.60;89.90;;;;;;6311537;22;20159;-90
2022/02/27 05:07:23;;;;;;;11.53;6.30;;;-0.70;89.90;;;;;;6311562;22;20223;-90
2022/02/27 05:09:49;;;;;;;11.77;6.07;;;-0.70;89.90;;;;;;6312120;22;20169;-90
2022/02/27 05:12:14;;;;;;;8.37;5.87;;;-0.70;89.90;;;;;;6311726;22;20470;-90
2022/02/27 05:14:40;;;;;;;15.97;6.80;;;-0.70;89.90;;;;;;6311612;22;20154;-90
2022/02/27 05:17:05;;;;;;;12.17;6.27;;;-0.70;90.00;;;;;;6312586;22;20577;-90
2022/02/27 05:19:31;;;;;;;12.33;6.77;;;-0.70;90.10;;;;;;6311469;22;20178;-90
2022/02/27 05:21:56;;;;;;;8.90;6.30;;;-0.70;90.20;;;;;;6311546;22;20499;-90
2022/02/27 05:24:22;;;;;;;11.53;6.27;;;-0.60;90.30;;;;;;6311622;22;20605;-90
2022/02/27 05:26:47;;;;;;;14.27;6.77;;;-0.60;90.30;;;;;;6311418;22;20201;-91
2022/02/27 05:29:13;;;;;;;8.70;5.93;;;-0.60;90.40;;;;;;6311547;22;20655;-90
2022/02/27 05:31:39;;;;;;;10.93;6.17;;;-0.60;90.40;;;;;;6311550;22;20157;-90
2022/02/27 05:34:05;;;;;;;11.90;5.27;;;-0.60;90.40;;;;;;6312577;22;20192;-90
2022/02/27 05:36:31;;;;;;;10.60;6.57;;;-0.60;90.50;;;;;;6311533;22;20157;-90
2022/02/27 05:38:57;;;;;;;9.33;6.10;;;-0.50;90.50;;;;;;6311465;22;20205;-90
2022/02/27 05:41:22;;;;;;;13.60;6.67;;;-0.50;90.50;;;;;;6311732;22;20632;-90
2022/02/27 05:43:48;;;;;;;8.67;5.87;;;-0.50;90.50;;;;;;6311882;22;20158;-90
2022/02/27 05:46:13;;;;;;;12.20;6.37;;;-0.50;90.50;;;;;;6311256;22;20629;-90
2022/02/27 05:48:39;;;;;;;15.73;6.30;;;-0.50;90.50;;;;;;6311408;22;20628;-90
2022/02/27 05:51:04;;;;;;;12.20;5.70;;;-0.60;90.50;;;;;;6311367;22;20175;-90
2022/02/27 05:53:30;;;;;;;12.73;6.47;;;-0.60;90.50;;;;;;6311741;22;20232;-91
2022/02/27 05:55:58;;;;;;;10.63;6.40;;;-0.60;90.60;;;;;;6311536;22;20153;-90
2022/02/27 05:58:29;;;;;;;12.97;6.60;;;-0.60;90.60;;;;;;6311410;22;20197;-90
2022/02/27 06:00:55;;;;;;;10.00;6.20;;;-0.60;90.60;;;;;;6311311;22;20142;-91
2022/02/27 06:03:20;;;;;;;9.37;6.37;;;-0.60;90.70;;;;;;6311657;22;20635;-91
2022/02/27 06:05:46;;;;;;;10.30;6.30;;;-0.50;90.80;;;;;;6311092;22;20226;-90
2022/02/27 06:08:12;;;;;;;8.17;6.20;;;-0.50;90.80;;;;;;6311249;22;20169;-91
2022/02/27 06:10:38;;;;;;;13.13;6.90;;;-0.50;90.80;;;;;;6311168;22;20149;-91
2022/02/27 06:13:03;;;;;;;9.80;6.20;;;-0.40;90.90;;;;;;6312282;22;20157;-90
2022/02/27 06:15:29;;;;;;;11.23;6.37;;;-0.40;90.90;;;;;;6311532;22;20153;-91
2022/02/27 06:17:55;;;;;;;9.73;6.53;;;-0.40;90.90;;;;;;6311191;22;20184;-91
2022/02/27 06:20:21;;;;;;;8.43;6.10;;;-0.40;91.00;;;;;;6311139;22;20154;-91
2022/02/27 06:22:48;;;;;;;9.30;6.30;;;-0.50;90.90;;;;;;6311103;22;20157;-90
2022/02/27 06:25:16;;;;;;;17.37;6.60;;;-0.40;91.00;;;;;;6311647;22;20181;-90
2022/02/27 06:27:42;;;;;;;18.47;7.23;;;-0.50;90.90;;;;;;6311273;22;20154;-90
2022/02/27 06:30:13;;;;;;;14.13;6.63;;;-0.50;91.00;;;;;;6311096;22;20149;-90
2022/02/27 06:32:39;;;;;;;15.53;6.40;;;-0.50;91.00;;;;;;6311328;22;20216;-90
2022/02/27 06:35:07;;;;;;;16.50;6.37;;;-0.50;91.00;;;;;;6311057;22;20188;-90
2022/02/27 06:37:33;;;;;;;14.30;6.90;;;-0.40;91.10;;;;;;6310944;22;20185;-90
2022/02/27 06:39:59;;;;;;;9.27;6.40;;;-0.40;91.10;;;;;;6310987;22;20154;-90
2022/02/27 06:42:25;;;;;;;13.83;6.13;;;-0.40;91.20;;;;;;6311143;22;20176;-90
2022/02/27 06:44:50;;;;;;;11.80;6.43;;;-0.30;91.20;;;;;;6310936;22;20199;-90
2022/02/27 06:47:16;;;;;;;11.83;6.50;;;-0.40;91.20;;;;;;6311036;22;20226;-90
2022/02/27 06:49:42;;;;;;;11.50;7.03;;;-0.30;91.30;;;;;;6310987;22;20252;-90
2022/02/27 06:52:07;;;;;;;13.83;6.33;;;-0.30;91.30;;;;;;6311023;22;20150;-90
2022/02/27 06:54:36;;;;;;;10.87;6.53;;;-0.20;91.30;;;;;;6312368;22;20624;-90
2022/02/27 06:57:02;;;;;;;13.00;6.57;;;-0.20;91.30;;;;;;6340590;22;20153;-90
2022/02/27 06:59:28;;;;;;;15.40;6.73;;;-0.10;91.30;;;;;;6312857;22;20174;-90
2022/02/27 07:01:54;;;;;;;10.93;6.70;;;-0.10;91.40;;;;;;6312963;22;20195;-90
2022/02/27 07:04:19;;;;;;;11.83;6.30;;;-0.10;91.40;;;;;;6312897;22;20161;-90
2022/02/27 07:06:45;;;;;;;15.33;7.47;;;0.00;91.40;;;;;;6312808;22;20573;-90
2022/02/27 07:09:10;;;;;;;20.53;7.10;;;0.00;91.40;;;;;;6313021;22;20174;-90
2022/02/27 07:11:36;;;;;;;16.50;6.43;;;0.00;91.40;;;;;;6313154;22;20232;-90
2022/02/27 07:14:02;;;;;;;12.77;6.80;;;0.00;91.50;;;;;;6313246;22;20149;-90
2022/02/27 07:16:27;;;;;;;14.40;6.70;;;0.10;91.40;;;;;;6312949;22;20154;-90
2022/02/27 07:18:57;;;;;;;9.23;6.37;;;0.10;91.50;;;;;;6312667;22;20173;-90
2022/02/27 07:21:24;;;;;;;9.67;6.70;;;0.20;91.50;;;;;;6313971;22;20442;-90
2022/02/27 07:23:50;;;;;;;11.97;6.70;;;0.20;91.50;;;;;;6312884;22;20190;-90
2022/02/27 07:26:15;;;;;;;12.50;6.60;;;0.30;91.50;;;;;;6312620;22;20181;-90
2022/02/27 07:28:41;;;;;;;12.43;7.03;;;0.30;91.50;;;;;;6312986;22;20178;-90
2022/02/27 07:31:06;;;;;;;13.10;6.90;;;0.40;91.50;;;;;;6313311;22;20169;-90
2022/02/27 07:33:32;;;;;;;16.53;7.27;;;0.40;91.40;;;;;;6312686;22;20294;-90
2022/02/27 07:35:57;;;;;;;12.47;6.17;;;0.40;91.40;;;;;;6312713;22;20153;-90
2022/02/27 07:38:23;;;;;;;13.87;6.70;;;0.50;91.40;;;;;;6312565;22;20173;-90
2022/02/27 07:40:49;;;;;;;12.77;7.07;;;0.50;91.40;;;;;;6312682;22;20143;-90
2022/02/27 07:43:15;;;;;;;14.73;7.13;;;0.60;91.40;;;;;;6313031;22;20603;-90
2022/02/27 07:45:41;;;;;;;18.10;7.80;;;0.60;91.40;;;;;;6312958;22;20701;-90
2022/02/27 07:48:07;;;;;;;10.90;7.53;;;0.60;91.40;;;;;;6312501;22;20202;-90
2022/02/27 07:50:33;;;;;;;12.33;6.93;;;0.70;91.40;;;;;;6312660;22;20149;-90
2022/02/27 07:52:58;;;;;;;12.23;6.90;;;0.70;91.30;;;;;;6312866;22;20155;-90
2022/02/27 07:55:25;;;;;;;14.93;6.37;;;0.80;91.30;;;;;;6312620;22;20163;-90
2022/02/27 07:57:51;;;;;;;11.67;6.97;;;0.80;91.20;;;;;;6312222;22;20198;-91
2022/02/27 08:00:17;;;;;;;12.30;6.63;;;0.90;91.20;;;;;;6312542;22;20160;-91
2022/02/27 08:02:43;;;;;;;13.10;7.00;;;0.90;91.10;;;;;;6312890;22;20239;-91
2022/02/27 08:05:09;;;;;;;10.83;6.93;;;0.90;91.10;;;;;;6312153;22;20565;-90
2022/02/27 08:07:34;;;;;;;11.03;6.40;;;1.00;91.10;;;;;;6312388;22;20183;-91
2022/02/27 08:10:00;;;;;;;14.43;7.00;;;1.10;91.00;;;;;;6312950;22;20151;-90
2022/02/27 08:12:37;;;;;;;12.27;6.80;;;1.10;91.00;;;;;;6319268;22;20185;-92
2022/02/27 08:15:03;;;;;;;9.20;6.30;;;1.20;90.90;;;;;;6315424;22;20168;-89
2022/02/27 08:17:29;;;;;;;10.97;6.87;;;1.30;90.80;;;;;;6312256;22;20161;-90
2022/02/27 08:19:54;;;;;;;8.57;6.17;;;1.40;90.80;;;;;;6314802;22;20157;-90
2022/02/27 08:22:20;;;;;;;11.70;6.47;;;1.40;90.70;;;;;;6312875;22;20161;-91
2022/02/27 08:24:45;;;;;;;9.57;5.93;;;1.50;90.70;;;;;;6312411;22;20158;-91
2022/02/27 08:27:11;;;;;;;9.33;6.30;;;1.60;90.50;;;;;;6312796;22;20185;-90
2022/02/27 08:29:37;;;;;;;13.27;6.43;;;1.70;90.40;;;;;;6312395;22;20247;-90
2022/02/27 08:32:02;;;;;;;12.17;6.50;;;1.70;90.30;;;;;;6312247;22;20661;-90
2022/02/27 08:34:29;;;;;;;10.97;6.40;;;1.80;90.20;;;;;;6312336;22;20163;-90
2022/02/27 08:36:55;;;;;;;13.27;6.70;;;1.80;90.00;;;;;;6312105;22;20210;-90
2022/02/27 08:39:20;;;;;;;12.40;6.57;;;1.90;89.80;;;;;;6312153;22;20177;-90
2022/02/27 08:41:46;;;;;;;11.03;6.77;;;2.00;89.60;;;;;;6311989;22;20497;-90
2022/02/27 08:44:12;;;;;;;10.47;6.30;;;2.10;89.40;;;;;;6312018;22;20537;-89
2022/02/27 08:46:39;;;;;;;10.77;6.13;;;2.20;89.20;;;;;;6311838;22;20170;-90
2022/02/27 08:49:06;;;;;;;17.03;6.63;;;2.20;88.90;;;;;;6312111;22;20175;-89
2022/02/27 08:51:32;;;;;;;10.43;5.53;;;2.30;88.50;;;;;;6311776;22;20474;-90
2022/02/27 08:53:57;;;;;;;12.37;6.07;;;2.40;88.30;;;;;;6312197;22;20207;-90
2022/02/27 08:56:23;;;;;;;12.13;6.07;;;2.50;88.10;;;;;;6312035;22;20154;-90
2022/02/27 08:58:49;;;;;;;11.97;5.93;;;2.60;87.80;;;;;;6312021;22;20196;-89
2022/02/27 09:01:14;;;;;;;10.03;5.67;;;2.80;87.60;;;;;;6311886;22;20286;-90
2022/02/27 09:03:40;;;;;;;9.13;6.00;;;2.80;87.40;;;;;;6312757;22;20157;-90
2022/02/27 09:06:05;;;;;;;14.10;6.47;;;2.90;87.10;;;;;;6311715;22;20174;-89
2022/02/27 09:08:31;;;;;;;12.53;5.77;;;3.00;86.70;;;;;;6311640;22;20165;-89
2022/02/27 09:10:57;;;;;;;10.63;5.87;;;3.10;86.60;;;;;;6313123;22;20171;-90
2022/02/27 09:13:23;;;;;;;9.73;5.63;;;3.10;86.40;;;;;;6311949;22;20149;-90
2022/02/27 09:15:48;;;;;;;11.83;5.70;;;3.20;86.30;;;;;;6312014;22;20157;-90
2022/02/27 09:18:14;;;;;;;11.73;5.57;;;3.30;85.80;;;;;;6311227;22;20259;-90
2022/02/27 09:20:39;;;;;;;14.30;5.63;;;3.30;85.50;;;;;;6311674;22;20198;-90
2022/02/27 09:23:05;;;;;;;8.00;5.40;;;3.40;85.00;;;;;;6311651;22;20157;-90
2022/02/27 09:25:31;;;;;;;8.53;5.10;;;3.50;84.80;;;;;;6311644;22;20177;-90
2022/02/27 09:27:56;;;;;;;9.87;5.57;;;3.60;84.60;;;;;;6311723;22;20176;-89
2022/02/27 09:30:22;;;;;;;10.97;5.03;;;3.70;84.60;;;;;;6311952;22;20207;-90
2022/02/27 09:32:47;;;;;;;11.73;5.47;;;3.80;83.80;;;;;;6314256;22;20172;-90
2022/02/27 09:35:13;;;;;;;9.53;5.50;;;4.00;83.30;;;;;;6311676;22;20169;-90
2022/02/27 09:37:39;;;;;;;10.87;5.47;;;4.00;82.80;;;;;;6311603;22;20185;-90
2022/02/27 09:40:06;;;;;;;12.90;5.07;;;4.20;82.60;;;;;;6311205;22;20158;-90
2022/02/27 09:42:33;;;;;;;9.60;6.07;;;4.30;82.30;;;;;;6311508;22;20160;-90
2022/02/27 09:45:00;;;;;;;12.10;5.37;;;4.30;82.20;;;;;;6311916;22;20194;-90
2022/02/27 09:47:26;;;;;;;9.83;4.40;;;4.50;82.00;;;;;;6312290;22;20234;-91
2022/02/27 09:49:53;;;;;;;9.90;5.07;;;4.60;81.90;;;;;;6311986;22;20185;-91
2022/02/27 09:52:21;;;;;;;11.30;4.80;;;4.60;81.20;;;;;;6311386;22;20150;-91
2022/02/27 09:54:48;;;;;;;11.37;4.80;;;4.80;80.80;;;;;;6311980;22;20601;-91
2022/02/27 09:57:18;;;;;;;8.73;5.03;;;4.90;79.90;;;;;;6311528;22;20172;-91
2022/02/27 09:59:44;;;;;;;10.13;4.80;;;4.90;79.80;;;;;;6311423;22;20178;-91
2022/02/27 10:02:12;;;;;;;10.63;5.07;;;5.10;79.60;;;;;;6312225;22;20159;-91
2022/02/27 10:04:40;;;;;;;15.70;5.70;;;5.10;79.40;;;;;;6311531;22;20154;-91
2022/02/27 10:07:17;;;;;;;10.77;4.87;;;5.20;79.00;;;;;;6311362;22;20269;-92
2022/02/27 10:09:44;;;;;;;7.53;4.33;;;5.30;79.10;;;;;;6311645;22;20167;-91
2022/02/27 10:12:20;;;;;;;13.50;4.90;;;5.40;78.40;;;;;;6311261;22;20235;-91
2022/02/27 10:15:06;;;;;;;9.03;4.47;;;5.50;77.60;;;;;;6311906;22;20557;-91
2022/02/27 10:17:36;;;;;;;10.80;4.70;;;5.50;77.00;;;;;;6312543;22;20177;-92
2022/02/27 10:20:12;;;;;;;8.97;4.17;;;5.60;76.00;;;;;;6311710;22;20144;-91
2022/02/27 10:22:43;;;;;;;9.43;4.50;;;5.80;75.80;;;;;;6311368;22;20141;-92
2022/02/27 10:25:21;;;;;;;10.13;4.53;;;5.80;75.80;;;;;;6312013;22;20205;-91
2022/02/27 10:27:55;;;;;;;6.80;4.50;;;6.00;75.70;;;;;;6311651;22;20176;-91
2022/02/27 10:30:26;;;;;;;9.97;4.07;;;6.00;75.60;;;;;;6314768;22;20141;-92
2022/02/27 10:33:04;;;;;;;11.07;4.33;;;6.10;74.70;;;;;;6318486;22;20153;-92
2022/02/27 10:35:52;;;;;;;6.20;3.40;;;6.10;73.80;;;;;;6320586;22;20145;-93
2022/02/27 10:38:43;;;;;;;9.20;4.07;;;6.30;74.50;;;;;;6325372;22;20175;-94
2022/02/27 10:41:21;;;;;;;13.70;4.37;;;6.30;73.10;;;;;;6325596;22;20156;-93
2022/02/27 10:43:57;;;;;;;10.10;4.03;;;6.50;74.10;;;;;;6325701;22;20141;-93
2022/02/27 10:46:31;;;;;;;13.53;4.53;;;6.50;72.70;;;;;;6321106;22;20196;-93
2022/02/27 10:48:57;;;;;;;13.73;4.13;;;6.70;72.70;;;;;;6323338;22;20174;-92
2022/02/27 10:51:31;;;;;;;9.20;4.37;;;6.70;72.50;;;;;;6321319;22;20176;-93
2022/02/27 10:54:03;;;;;;;10.93;4.53;;;6.80;73.50;;;;;;6321411;22;20141;-93
2022/02/27 10:56:37;;;;;;;10.27;4.30;;;6.90;72.70;;;;;;6321149;22;20607;-92
2022/02/27 10:59:15;;;;;;;7.13;3.63;;;7.00;72.10;;;;;;6319563;22;20196;-93
2022/02/27 11:01:41;;;;;;;15.17;4.23;;;6.90;72.10;;;;;;6286689;22;20206;-90
2022/02/27 11:04:07;;;;;;;6.90;3.77;;;7.20;73.20;;;;;;6282710;22;20126;-90
2022/02/27 11:06:33;;;;;;;10.33;4.10;;;7.10;70.80;;;;;;6281453;22;20183;-91
2022/02/27 11:08:59;;;;;;;9.43;3.73;;;7.10;70.70;;;;;;6283939;22;20177;-92
2022/02/27 11:11:26;;;;;;;13.23;4.17;;;7.00;70.70;;;;;;6282669;22;20182;-91
2022/02/27 11:13:52;;;;;;;9.57;4.07;;;7.10;70.00;;;;;;6287679;22;20164;-91
2022/02/27 11:16:21;;;;;;;11.07;5.20;;;7.10;70.60;;;;;;6287248;22;20220;-91
2022/02/27 11:18:47;;;;;;;9.50;4.13;;;7.20;69.00;;;;;;6281320;22;20201;-91
2022/02/27 11:21:14;;;;;;;20.27;6.37;;;7.30;69.00;;;;;;6280621;22;20155;-91
2022/02/27 11:23:40;;;;;;;26.27;8.77;;;7.30;69.60;;;;;;6280671;22;20159;-91
2022/02/27 11:26:06;;;;;;;15.13;6.13;;;7.30;68.00;;;;;;6279547;22;20183;-91
2022/02/27 11:28:33;;;;;;;17.90;7.07;;;7.50;67.50;;;;;;6278750;22;20170;-91
2022/02/27 11:31:02;;;;;;;15.50;4.20;;;7.70;68.50;;;;;;6280358;22;20154;-91
2022/02/27 11:33:28;;;;;;;14.33;4.13;;;7.70;67.30;;;;;;6281987;22;20208;-91
2022/02/27 11:35:58;;;;;;;9.90;4.30;;;7.70;67.90;;;;;;6281363;22;20159;-92
2022/02/27 11:38:30;;;;;;;11.30;4.30;;;7.70;67.90;;;;;;6280653;22;20182;-91
2022/02/27 11:41:13;;;;;;;12.63;4.43;;;7.50;67.10;;;;;;6279078;22;20296;-92
2022/02/27 11:43:39;;;;;;;9.63;4.03;;;7.40;67.50;;;;;;6281232;22;20153;-91
2022/02/27 11:49:18;;;;;;;7.33;3.30;;;7.50;68.30;;;;;;6335265;22;20201;-92
2022/02/27 11:52:03;;;;;;;10.70;3.80;;;7.60;67.80;;;;;;6317256;22;20145;-91
2022/02/27 11:54:48;;;;;;;10.13;4.03;;;7.50;67.80;;;;;;6317756;22;20187;-92
2022/02/27 11:57:36;;;;;;;7.13;3.90;;;7.70;67.70;;;;;;6323354;22;20168;-91
2022/02/27 12:00:06;;;;;;;8.97;4.00;;;7.90;67.60;;;;;;6312544;22;20465;-90
2022/02/27 12:02:53;;;;;;;12.77;4.27;;;7.90;67.10;;;;;;6320452;22;20130;-92
2022/02/27 12:05:40;;;;;;;8.57;3.50;;;7.90;66.50;;;;;;6318140;22;20250;-90
2022/02/27 12:08:14;;;;;;;15.17;4.03;;;7.80;66.60;;;;;;6313050;22;20169;-89
2022/02/27 12:10:45;;;;;;;10.57;4.17;;;7.80;66.50;;;;;;6313916;22;20140;-90
2022/02/27 12:13:16;;;;;;;8.70;4.23;;;7.90;66.30;;;;;;6313842;22;20517;-90
2022/02/27 12:15:41;;;;;;;8.77;3.67;;;8.10;67.50;;;;;;6313667;22;20660;-92
2022/02/27 12:18:07;;;;;;;9.33;4.67;;;8.20;68.40;;;;;;6313798;22;20174;-90
2022/02/27 12:20:59;;;;;;;9.50;4.20;;;8.00;65.90;;;;;;6312862;22;20166;-90
2022/02/27 12:23:28;;;;;;;13.13;4.93;;;8.00;67.70;;;;;;6322493;22;20466;-91
2022/02/27 12:25:55;;;;;;;18.20;5.03;;;7.90;66.50;;;;;;6314117;22;20181;-92
2022/02/27 12:28:49;;;;;;;7.67;4.00;;;8.00;66.10;;;;;;6317908;22;20169;-92
2022/02/27 12:31:30;;;;;;;8.60;4.23;;;8.00;66.80;;;;;;6323017;22;20257;-91
2022/02/27 12:34:11;;;;;;;9.57;4.43;;;8.20;66.10;;;;;;6312639;22;20148;-92
2022/02/27 12:36:37;;;;;;;7.63;3.90;;;8.00;66.20;;;;;;6312294;22;20202;-91
2022/02/27 12:39:07;;;;;;;6.73;3.80;;;8.10;66.50;;;;;;6312431;22;20625;-92
2022/02/27 12:41:35;;;;;;;8.40;3.73;;;8.00;66.50;;;;;;6313031;22;20164;-92
2022/02/27 12:44:03;;;;;;;9.43;3.90;;;8.10;66.60;;;;;;6311816;22;20233;-91
2022/02/27 12:46:29;;;;;;;9.20;4.53;;;8.20;66.80;;;;;;6311897;22;20520;-91
2022/02/27 12:51:39;;;;;;;7.80;3.97;;;8.30;63.80;;;;;;6340111;22;20141;-90